createdAt,value
2018-09-23T00:00:58.798Z,26.60
2018-09-23T00:01:58.781Z,26.90
2018-09-23T00:02:58.756Z,26.30
2018-09-23T00:03:58.736Z,26.10
2018-09-23T00:04:58.716Z,26.80
2018-09-23T00:05:58.707Z,26.30
2018-09-23T00:06:58.687Z,26.40
2018-09-23T00:07:58.660Z,26.00
2018-09-23T00:08:58.639Z,26.10
2018-09-23T00:09:58.627Z,26.40
2018-09-23T00:10:58.604Z,25.90
2018-09-23T00:11:58.582Z,25.60
2018-09-23T00:12:58.562Z,26.90
2018-09-23T00:13:58.543Z,27.30
2018-09-23T00:14:58.528Z,27.30
2018-09-23T00:15:58.506Z,27.00
2018-09-23T00:16:58.497Z,26.10
2018-09-23T00:17:58.481Z,26.30
2018-09-23T00:18:58.551Z,26.90
2018-09-23T00:19:58.430Z,26.40
2018-09-23T00:20:58.413Z,25.40
2018-09-23T00:21:58.392Z,25.80
2018-09-23T00:22:58.379Z,26.30
2018-09-23T00:23:58.353Z,24.60
2018-09-23T00:24:58.335Z,24.60
2018-09-23T00:25:58.316Z,25.10
2018-09-23T00:26:58.295Z,24.20
2018-09-23T00:27:58.277Z,25.00
2018-09-23T00:28:58.257Z,24.20
2018-09-23T00:29:58.249Z,24.20
2018-09-23T00:30:58.219Z,24.00
2018-09-23T00:31:58.202Z,23.60
2018-09-23T00:32:58.184Z,23.60
2018-09-23T00:33:58.162Z,22.70
2018-09-23T00:34:58.150Z,23.10
2018-09-23T00:35:58.129Z,23.00
2018-09-23T00:36:58.105Z,22.60
2018-09-23T00:37:58.096Z,23.20
2018-09-23T00:38:58.068Z,22.30
2018-09-23T00:39:58.049Z,22.60
2018-09-23T00:40:58.035Z,22.60
2018-09-23T00:41:58.009Z,21.90
2018-09-23T00:42:58.006Z,21.80
2018-09-23T00:43:57.971Z,22.70
2018-09-23T00:44:57.950Z,21.90
2018-09-23T00:45:58.045Z,22.20
2018-09-23T00:46:57.914Z,21.40
2018-09-23T00:47:57.896Z,21.40
2018-09-23T00:48:57.923Z,20.90
2018-09-23T00:49:57.864Z,20.90
2018-09-23T00:50:57.836Z,20.90
2018-09-23T00:51:57.821Z,21.60
2018-09-23T00:52:57.798Z,21.60
2018-09-23T00:53:57.778Z,21.30
2018-09-23T00:54:57.765Z,21.20
2018-09-23T00:55:57.740Z,22.00
2018-09-23T00:56:57.720Z,21.70
2018-09-23T00:57:57.705Z,21.40
2018-09-23T00:58:57.682Z,22.20
2018-09-23T00:59:57.665Z,22.20
2018-09-23T01:00:57.646Z,22.60
2018-09-23T01:01:57.634Z,22.60
2018-09-23T01:02:57.614Z,21.70
2018-09-23T01:03:57.597Z,23.20
2018-09-23T01:04:57.569Z,21.30
2018-09-23T01:05:57.549Z,22.80
2018-09-23T01:06:57.529Z,22.00
2018-09-23T01:07:57.509Z,21.80
2018-09-23T01:08:57.492Z,21.40
2018-09-23T01:09:57.471Z,21.50
2018-09-23T01:10:57.453Z,21.80
2018-09-23T01:11:57.436Z,22.40
2018-09-23T01:12:57.414Z,20.50
2018-09-23T01:13:57.394Z,21.60
2018-09-23T01:14:57.380Z,21.20
2018-09-23T01:15:57.361Z,21.10
2018-09-23T01:16:57.348Z,21.10
2018-09-23T01:17:57.318Z,20.70
2018-09-23T01:18:57.300Z,20.60
2018-09-23T01:19:57.279Z,21.50
2018-09-23T01:20:57.259Z,20.70
2018-09-23T01:21:57.246Z,20.80
2018-09-23T01:22:57.224Z,20.80
2018-09-23T01:23:57.204Z,20.50
2018-09-23T01:24:57.183Z,20.60
2018-09-23T01:25:57.172Z,21.00
2018-09-23T01:26:57.152Z,19.70
2018-09-23T01:27:57.125Z,20.80
2018-09-23T01:28:57.106Z,20.80
2018-09-23T01:29:57.125Z,20.50
2018-09-23T01:30:57.067Z,20.60
2018-09-23T01:31:57.056Z,21.00
2018-09-23T01:32:57.029Z,20.10
2018-09-23T01:33:57.010Z,20.50
2018-09-23T01:34:56.993Z,20.10
2018-09-23T01:35:56.973Z,20.90
2018-09-23T01:36:56.964Z,21.30
2018-09-23T01:37:56.935Z,20.80
2018-09-23T01:38:56.925Z,20.60
2018-09-23T01:39:56.907Z,20.10
2018-09-23T01:40:56.932Z,20.30
2018-09-23T01:41:56.858Z,20.50
2018-09-23T01:42:56.840Z,20.60
2018-09-23T01:43:56.822Z,20.20
2018-09-23T01:44:56.801Z,20.50
2018-09-23T01:45:56.784Z,20.20
2018-09-23T01:46:56.763Z,20.10
2018-09-23T01:47:56.749Z,20.00
2018-09-23T01:48:56.723Z,20.90
2018-09-23T01:49:56.703Z,19.80
2018-09-23T01:50:56.686Z,20.40
2018-09-23T01:51:56.667Z,18.50
2018-09-23T01:52:56.648Z,19.90
2018-09-23T01:53:56.634Z,19.70
2018-09-23T01:54:56.609Z,19.00
2018-09-23T01:55:56.589Z,19.50
2018-09-23T01:56:56.571Z,19.50
2018-09-23T01:57:56.552Z,19.60
2018-09-23T01:58:56.532Z,19.50
2018-09-23T01:59:56.530Z,19.30
2018-09-23T02:00:56.493Z,18.60
2018-09-23T02:01:56.478Z,18.70
2018-09-23T02:02:56.455Z,18.80
2018-09-23T02:03:56.438Z,19.50
2018-09-23T02:04:56.420Z,19.30
2018-09-23T02:05:56.401Z,18.30
2018-09-23T02:06:56.386Z,19.00
2018-09-23T02:07:56.360Z,19.00
2018-09-23T02:08:56.339Z,18.80
2018-09-23T02:09:56.321Z,18.80
2018-09-23T02:10:56.307Z,18.20
2018-09-23T02:11:56.283Z,17.00
2018-09-23T02:12:56.273Z,17.10
2018-09-23T02:13:56.244Z,16.80
2018-09-23T02:14:56.226Z,17.20
2018-09-23T02:15:56.208Z,17.30
2018-09-23T02:16:56.185Z,17.50
2018-09-23T02:17:56.167Z,17.90
2018-09-23T02:18:56.147Z,16.10
2018-09-23T02:19:56.129Z,17.00
2018-09-23T02:20:56.107Z,17.30
2018-09-23T02:21:56.106Z,15.50
2018-09-23T02:22:56.075Z,14.80
2018-09-23T02:23:56.065Z,16.40
2018-09-23T02:24:56.033Z,15.10
2018-09-23T02:25:56.012Z,12.50
2018-09-23T02:26:55.995Z,15.90
2018-09-23T02:27:55.977Z,15.40
2018-09-23T02:28:55.961Z,15.60
2018-09-23T02:29:55.943Z,15.90
2018-09-23T02:30:55.933Z,16.50
2018-09-23T02:31:55.898Z,16.40
2018-09-23T02:32:55.879Z,15.40
2018-09-23T02:33:55.860Z,17.00
2018-09-23T02:34:55.841Z,15.20
2018-09-23T02:35:55.919Z,15.50
2018-09-23T02:36:55.802Z,16.10
2018-09-23T02:37:55.783Z,15.50
2018-09-23T02:38:55.767Z,16.20
2018-09-23T02:39:55.747Z,15.90
2018-09-23T02:40:55.729Z,16.20
2018-09-23T02:41:55.725Z,12.70
2018-09-23T02:42:55.690Z,13.20
2018-09-23T02:43:55.671Z,14.40
2018-09-23T02:44:55.651Z,13.70
2018-09-23T02:45:55.639Z,15.40
2018-09-23T02:46:55.614Z,15.10
2018-09-23T02:47:55.596Z,14.80
2018-09-23T02:48:55.577Z,15.10
2018-09-23T02:49:55.575Z,14.90
2018-09-23T02:50:55.538Z,14.90
2018-09-23T02:51:55.527Z,15.50
2018-09-23T02:52:55.498Z,15.50
2018-09-23T02:53:55.499Z,16.10
2018-09-23T02:54:55.461Z,16.30
2018-09-23T02:55:55.443Z,15.40
2018-09-23T02:56:55.426Z,16.10
2018-09-23T02:57:55.412Z,16.90
2018-09-23T02:58:55.384Z,15.80
2018-09-23T02:59:55.366Z,15.60
2018-09-23T03:00:55.346Z,16.70
2018-09-23T03:01:55.328Z,15.90
2018-09-23T03:02:55.312Z,16.00
2018-09-23T03:03:55.298Z,14.50
2018-09-23T03:04:55.271Z,15.20
2018-09-23T03:05:55.266Z,14.00
2018-09-23T03:06:55.237Z,15.80
2018-09-23T03:07:55.213Z,16.60
2018-09-23T03:08:55.294Z,13.60
2018-09-23T03:09:55.200Z,15.20
2018-09-23T03:10:55.158Z,16.00
2018-09-23T03:11:55.137Z,14.50
2018-09-23T03:12:55.118Z,16.30
2018-09-23T03:13:55.097Z,15.40
2018-09-23T03:14:55.082Z,14.70
2018-09-23T03:15:55.060Z,15.10
2018-09-23T03:16:55.041Z,16.50
2018-09-23T03:17:55.021Z,15.10
2018-09-23T03:18:55.024Z,16.20
2018-09-23T03:19:54.983Z,16.40
2018-09-23T03:20:54.965Z,16.10
2018-09-23T03:21:54.944Z,14.50
2018-09-23T03:22:54.935Z,15.30
2018-09-23T03:23:54.914Z,14.20
2018-09-23T03:24:54.911Z,15.80
2018-09-23T03:25:54.868Z,15.70
2018-09-23T03:26:54.851Z,13.10
2018-09-23T03:27:54.836Z,15.60
2018-09-23T03:28:54.812Z,14.50
2018-09-23T03:29:54.800Z,15.40
2018-09-23T03:30:54.773Z,15.30
2018-09-23T03:31:54.755Z,16.20
2018-09-23T03:32:54.735Z,14.80
2018-09-23T03:33:54.720Z,17.10
2018-09-23T03:34:54.697Z,16.80
2018-09-23T03:35:54.679Z,17.80
2018-09-23T03:36:54.659Z,15.90
2018-09-23T03:37:54.638Z,16.80
2018-09-23T03:38:54.619Z,17.60
2018-09-23T03:39:54.604Z,17.30
2018-09-23T03:40:54.582Z,17.60
2018-09-23T03:41:54.573Z,18.10
2018-09-23T03:42:54.543Z,18.40
2018-09-23T03:43:54.526Z,18.30
2018-09-23T03:44:54.506Z,17.70
2018-09-23T03:45:54.485Z,19.20
2018-09-23T03:46:54.467Z,18.40
2018-09-23T03:47:54.450Z,18.20
2018-09-23T03:48:54.427Z,18.00
2018-09-23T03:49:54.408Z,18.80
2018-09-23T03:50:54.389Z,19.60
2018-09-23T03:51:54.370Z,18.60
2018-09-23T03:52:54.355Z,18.70
2018-09-23T03:53:54.336Z,17.70
2018-09-23T03:54:54.414Z,18.70
2018-09-23T03:55:54.295Z,16.20
2018-09-23T03:56:54.274Z,17.80
2018-09-23T03:57:54.283Z,18.10
2018-09-23T03:58:54.236Z,17.70
2018-09-23T03:59:54.217Z,17.60
2018-09-23T04:00:54.197Z,18.50
2018-09-23T04:01:54.178Z,18.30
2018-09-23T04:02:54.170Z,17.30
2018-09-23T04:03:54.139Z,17.60
2018-09-23T04:04:54.120Z,18.20
2018-09-23T04:05:54.100Z,17.70
2018-09-23T04:06:54.080Z,17.30
2018-09-23T04:07:54.063Z,17.90
2018-09-23T04:08:54.045Z,18.10
2018-09-23T04:09:54.029Z,18.80
2018-09-23T04:10:54.004Z,19.50
2018-09-23T04:11:54.038Z,19.00
2018-09-23T04:12:53.966Z,20.30
2018-09-23T04:13:54.109Z,19.20
2018-09-23T04:14:53.926Z,18.70
2018-09-23T04:15:53.906Z,18.70
2018-09-23T04:16:53.888Z,18.50
2018-09-23T04:17:53.868Z,17.90
2018-09-23T04:18:53.849Z,16.20
2018-09-23T04:19:53.832Z,16.20
2018-09-23T04:20:53.809Z,18.20
2018-09-23T04:21:53.802Z,15.70
2018-09-23T04:22:53.772Z,16.80
2018-09-23T04:23:53.752Z,16.60
2018-09-23T04:24:53.741Z,16.50
2018-09-23T04:25:53.715Z,16.90
2018-09-23T04:26:53.692Z,18.40
2018-09-23T04:27:53.673Z,16.40
2018-09-23T04:28:53.662Z,16.30
2018-09-23T04:29:53.635Z,16.10
2018-09-23T04:30:53.616Z,14.10
2018-09-23T04:31:53.596Z,14.00
2018-09-23T04:32:53.579Z,13.90
2018-09-23T04:33:53.560Z,13.90
2018-09-23T04:34:53.539Z,15.10
2018-09-23T04:35:53.519Z,13.60
2018-09-23T04:36:53.500Z,14.90
2018-09-23T04:37:53.484Z,15.30
2018-09-23T04:38:53.463Z,14.20
2018-09-23T04:39:53.443Z,15.90
2018-09-23T04:40:53.424Z,15.30
2018-09-23T04:41:53.406Z,15.70
2018-09-23T04:42:53.385Z,18.80
2018-09-23T04:43:53.467Z,17.90
2018-09-23T04:44:53.409Z,17.60
2018-09-23T04:45:53.329Z,18.10
2018-09-23T04:46:53.310Z,19.10
2018-09-23T04:47:53.302Z,16.00
2018-09-23T04:48:53.274Z,16.80
2018-09-23T04:49:53.256Z,16.30
2018-09-23T04:50:53.240Z,18.50
2018-09-23T04:51:53.213Z,16.90
2018-09-23T04:52:53.195Z,17.70
2018-09-23T04:53:53.184Z,17.40
2018-09-23T04:54:53.158Z,16.40
2018-09-23T04:55:53.138Z,14.30
2018-09-23T04:56:53.120Z,14.60
2018-09-23T04:57:53.100Z,15.20
2018-09-23T04:58:53.089Z,14.90
2018-09-23T04:59:53.062Z,15.80
2018-09-23T05:00:53.042Z,15.00
2018-09-23T05:01:53.024Z,14.70
2018-09-23T05:02:53.006Z,14.10
2018-09-23T05:03:52.986Z,14.10
2018-09-23T05:04:52.964Z,15.10
2018-09-23T05:05:53.047Z,15.30
2018-09-23T05:06:52.928Z,13.70
2018-09-23T05:07:52.909Z,16.00
2018-09-23T05:08:52.889Z,14.00
2018-09-23T05:09:52.871Z,16.30
2018-09-23T05:10:52.851Z,16.70
2018-09-23T05:11:52.841Z,16.40
2018-09-23T05:12:52.814Z,17.20
2018-09-23T05:13:52.797Z,18.60
2018-09-23T05:14:52.784Z,18.40
2018-09-23T05:15:52.757Z,18.50
2018-09-23T05:16:52.736Z,18.90
2018-09-23T05:17:52.717Z,16.50
2018-09-23T05:18:52.702Z,15.60
2018-09-23T05:19:52.689Z,16.50
2018-09-23T05:20:52.660Z,14.50
2018-09-23T05:21:52.642Z,13.50
2018-09-23T05:22:52.622Z,15.40
2018-09-23T05:23:52.620Z,14.70
2018-09-23T05:24:52.584Z,14.90
2018-09-23T05:25:52.566Z,16.80
2018-09-23T05:26:52.547Z,18.30
2018-09-23T05:27:52.527Z,17.90
2018-09-23T05:28:52.506Z,17.90
2018-09-23T05:29:52.487Z,18.20
2018-09-23T05:30:52.506Z,19.10
2018-09-23T05:31:52.451Z,16.00
2018-09-23T05:32:52.434Z,17.40
2018-09-23T05:33:52.412Z,16.80
2018-09-23T05:34:52.395Z,16.40
2018-09-23T05:35:52.375Z,17.50
2018-09-23T05:36:52.360Z,14.20
2018-09-23T05:37:52.340Z,13.80
2018-09-23T05:38:52.316Z,13.70
2018-09-23T05:39:52.299Z,13.90
2018-09-23T05:40:52.278Z,12.90
2018-09-23T05:41:52.259Z,13.60
2018-09-23T05:42:52.240Z,15.60
2018-09-23T05:43:52.333Z,13.90
2018-09-23T05:44:52.203Z,15.70
2018-09-23T05:45:52.183Z,14.90
2018-09-23T05:46:52.165Z,15.20
2018-09-23T05:47:52.151Z,14.20
2018-09-23T05:48:52.126Z,14.70
2018-09-23T05:49:52.109Z,12.80
2018-09-23T05:50:52.089Z,14.50
2018-09-23T05:51:52.070Z,15.40
2018-09-23T05:52:52.052Z,15.20
2018-09-23T05:53:52.031Z,13.80
2018-09-23T05:54:52.012Z,16.50
2018-09-23T05:55:52.001Z,15.60
2018-09-23T05:56:51.975Z,15.90
2018-09-23T05:57:51.967Z,13.40
2018-09-23T05:58:51.945Z,14.50
2018-09-23T05:59:51.919Z,16.00
2018-09-23T06:00:51.902Z,17.10
2018-09-23T06:01:51.893Z,16.90
2018-09-23T06:02:51.863Z,16.00
2018-09-23T06:03:51.843Z,15.40
2018-09-23T06:04:51.823Z,16.00
2018-09-23T06:05:51.804Z,14.70
2018-09-23T06:06:51.785Z,14.60
2018-09-23T06:07:51.778Z,15.10
2018-09-23T06:08:51.757Z,17.30
2018-09-23T06:09:51.736Z,16.50
2018-09-23T06:10:51.710Z,17.60
2018-09-23T06:11:51.689Z,15.00
2018-09-23T06:12:51.672Z,15.30
2018-09-23T06:13:51.653Z,14.20
2018-09-23T06:14:51.632Z,16.00
2018-09-23T06:15:51.616Z,16.60
2018-09-23T06:16:51.610Z,15.20
2018-09-23T06:17:51.576Z,17.00
2018-09-23T06:18:51.559Z,15.70
2018-09-23T06:19:51.541Z,16.10
2018-09-23T06:20:51.518Z,15.70
2018-09-23T06:21:51.500Z,13.50
2018-09-23T06:22:51.487Z,14.00
2018-09-23T06:23:51.463Z,13.50
2018-09-23T06:24:51.447Z,14.30
2018-09-23T06:25:51.425Z,13.90
2018-09-23T06:26:51.411Z,13.50
2018-09-23T06:27:51.633Z,12.10
2018-09-23T06:28:51.379Z,12.80
2018-09-23T06:29:51.350Z,15.20
2018-09-23T06:30:51.332Z,14.30
2018-09-23T06:31:51.313Z,14.70
2018-09-23T06:32:51.306Z,14.90
2018-09-23T06:33:51.274Z,14.70
2018-09-23T06:34:51.256Z,13.40
2018-09-23T06:35:51.237Z,12.90
2018-09-23T06:36:51.271Z,14.00
2018-09-23T06:37:51.209Z,13.20
2018-09-23T06:38:51.183Z,13.40
2018-09-23T06:39:51.171Z,15.80
2018-09-23T06:40:51.148Z,15.50
2018-09-23T06:41:51.128Z,14.90
2018-09-23T06:42:51.117Z,14.90
2018-09-23T06:43:51.097Z,14.70
2018-09-23T06:44:51.076Z,14.50
2018-09-23T06:45:51.146Z,15.70
2018-09-23T06:46:51.040Z,16.90
2018-09-23T06:47:51.019Z,16.40
2018-09-23T06:48:50.997Z,16.70
2018-09-23T06:49:50.975Z,15.40
2018-09-23T06:50:50.961Z,16.10
2018-09-23T06:51:50.941Z,15.90
2018-09-23T06:52:50.920Z,15.40
2018-09-23T06:53:50.902Z,16.30
2018-09-23T06:54:50.890Z,16.40
2018-09-23T06:55:50.871Z,19.00
2018-09-23T06:56:50.877Z,16.80
2018-09-23T06:57:50.836Z,16.30
2018-09-23T06:58:50.808Z,15.30
2018-09-23T06:59:50.791Z,14.20
2018-09-23T07:00:50.769Z,14.60
2018-09-23T07:01:50.753Z,13.70
2018-09-23T07:02:50.732Z,14.40
2018-09-23T07:03:50.715Z,13.40
2018-09-23T07:04:50.733Z,13.30
2018-09-23T07:05:50.700Z,14.80
2018-09-23T07:06:50.658Z,14.00
2018-09-23T07:07:50.646Z,16.40
2018-09-23T07:08:50.619Z,15.90
2018-09-23T07:09:50.604Z,15.60
2018-09-23T07:10:50.589Z,13.80
2018-09-23T07:11:50.564Z,14.10
2018-09-23T07:12:50.553Z,14.40
2018-09-23T07:13:50.528Z,14.80
2018-09-23T07:14:50.509Z,15.30
2018-09-23T07:15:50.490Z,14.60
2018-09-23T07:16:50.492Z,16.00
2018-09-23T07:17:50.454Z,15.50
2018-09-23T07:18:50.434Z,16.00
2018-09-23T07:19:50.415Z,13.90
2018-09-23T07:20:50.395Z,14.40
2018-09-23T07:21:50.380Z,16.00
2018-09-23T07:22:50.360Z,14.80
2018-09-23T07:23:50.400Z,14.20
2018-09-23T07:24:50.321Z,15.80
2018-09-23T07:25:50.303Z,15.10
2018-09-23T07:26:50.286Z,13.80
2018-09-23T07:27:50.271Z,14.50
2018-09-23T07:28:50.247Z,16.00
2018-09-23T07:29:50.234Z,16.00
2018-09-23T07:30:50.218Z,16.60
2018-09-23T07:31:50.194Z,15.90
2018-09-23T07:32:50.172Z,16.30
2018-09-23T07:33:50.154Z,16.30
2018-09-23T07:34:50.137Z,15.90
2018-09-23T07:35:50.120Z,15.80
2018-09-23T07:36:50.107Z,14.50
2018-09-23T07:37:50.080Z,16.10
2018-09-23T07:38:50.072Z,16.80
2018-09-23T07:39:50.057Z,15.30
2018-09-23T07:40:50.033Z,15.40
2018-09-23T07:41:50.010Z,15.80
2018-09-23T07:42:49.987Z,16.40
2018-09-23T07:43:49.988Z,15.90
2018-09-23T07:44:49.950Z,15.40
2018-09-23T07:45:49.939Z,15.50
2018-09-23T07:46:49.918Z,16.10
2018-09-23T07:47:49.922Z,16.80
2018-09-23T07:48:49.875Z,16.70
2018-09-23T07:49:49.855Z,16.50
2018-09-23T07:50:49.839Z,15.80
2018-09-23T07:51:49.820Z,14.20
2018-09-23T07:52:49.802Z,14.90
2018-09-23T07:53:49.783Z,13.70
2018-09-23T07:54:49.762Z,16.10
2018-09-23T07:55:49.745Z,15.50
2018-09-23T07:56:49.728Z,16.50
2018-09-23T07:57:49.708Z,15.60
2018-09-23T07:58:49.692Z,15.50
2018-09-23T07:59:49.681Z,15.70
2018-09-23T08:00:49.654Z,15.10
2018-09-23T08:01:49.657Z,15.60
2018-09-23T08:02:49.644Z,14.50
2018-09-23T08:03:49.599Z,16.00
2018-09-23T08:04:49.584Z,13.70
2018-09-23T08:05:49.569Z,14.90
2018-09-23T08:06:49.551Z,15.60
2018-09-23T08:07:49.526Z,14.90
2018-09-23T08:08:49.506Z,16.20
2018-09-23T08:09:49.492Z,15.80
2018-09-23T08:10:49.483Z,15.50
2018-09-23T08:11:49.452Z,16.40
2018-09-23T08:12:49.643Z,16.30
2018-09-23T08:13:49.652Z,16.20
2018-09-23T08:14:49.864Z,16.30
2018-09-23T08:15:49.379Z,16.00
2018-09-23T08:16:49.363Z,15.80
2018-09-23T08:17:49.342Z,16.10
2018-09-23T08:18:49.339Z,16.00
2018-09-23T08:19:49.462Z,16.50
2018-09-23T08:20:49.346Z,16.10
2018-09-23T08:21:49.382Z,15.70
2018-09-23T08:22:49.258Z,14.30
2018-09-23T08:23:49.230Z,15.80
2018-09-23T08:24:49.218Z,15.20
2018-09-23T08:25:49.218Z,15.50
2018-09-23T08:26:49.194Z,14.90
2018-09-23T08:27:49.180Z,16.40
2018-09-23T08:28:49.148Z,15.60
2018-09-23T08:29:49.132Z,16.00
2018-09-23T08:30:49.119Z,15.00
2018-09-23T08:31:49.086Z,15.40
2018-09-23T08:32:49.126Z,15.90
2018-09-23T08:33:49.049Z,15.90
2018-09-23T08:34:49.034Z,15.00
2018-09-23T08:35:49.012Z,16.10
2018-09-23T08:36:48.994Z,16.00
2018-09-23T08:37:48.975Z,15.10
2018-09-23T08:38:48.959Z,14.80
2018-09-23T08:39:48.973Z,14.50
2018-09-23T08:40:48.934Z,14.10
2018-09-23T08:41:48.921Z,14.70
2018-09-23T08:42:48.927Z,14.60
2018-09-23T08:43:48.868Z,15.40
2018-09-23T08:44:48.857Z,15.60
2018-09-23T08:45:48.835Z,15.70
2018-09-23T08:46:48.813Z,14.70
2018-09-23T08:47:48.854Z,15.40
2018-09-23T08:48:48.778Z,15.60
2018-09-23T08:49:48.764Z,15.00
2018-09-23T08:50:48.749Z,15.40
2018-09-23T08:51:48.858Z,15.30
2018-09-23T08:52:48.704Z,15.60
2018-09-23T08:53:48.699Z,15.90
2018-09-23T08:54:48.668Z,15.80
2018-09-23T08:55:48.651Z,15.50
2018-09-23T08:56:48.633Z,16.20
2018-09-23T08:57:48.771Z,15.90
2018-09-23T08:58:48.604Z,16.70
2018-09-23T08:59:48.589Z,14.80
2018-09-23T09:00:48.574Z,13.90
2018-09-23T09:01:48.543Z,13.60
2018-09-23T09:02:48.527Z,14.20
2018-09-23T09:03:48.554Z,14.00
2018-09-23T09:04:48.496Z,14.30
2018-09-23T09:05:48.478Z,15.40
2018-09-23T09:06:48.463Z,14.20
2018-09-23T09:07:48.447Z,15.00
2018-09-23T09:08:48.417Z,15.20
2018-09-23T09:09:48.397Z,14.10
2018-09-23T09:10:48.387Z,14.70
2018-09-23T09:11:48.389Z,15.60
2018-09-23T09:12:48.344Z,14.80
2018-09-23T09:13:48.330Z,15.20
2018-09-23T09:14:48.315Z,14.30
2018-09-23T09:15:48.294Z,15.20
2018-09-23T09:16:48.270Z,14.50
2018-09-23T09:17:48.252Z,16.90
2018-09-23T09:18:48.407Z,15.80
2018-09-23T09:19:48.218Z,15.20
2018-09-23T09:20:48.205Z,15.30
2018-09-23T09:21:48.181Z,14.80
2018-09-23T09:22:48.169Z,15.60
2018-09-23T09:23:48.145Z,14.60
2018-09-23T09:24:48.150Z,15.40
2018-09-23T09:25:48.111Z,14.40
2018-09-23T09:26:48.188Z,14.40
2018-09-23T09:27:48.072Z,15.00
2018-09-23T09:28:48.066Z,15.00
2018-09-23T09:29:48.037Z,15.50
2018-09-23T09:30:48.030Z,14.00
2018-09-23T09:31:48.000Z,14.70
2018-09-23T09:32:47.981Z,15.20
2018-09-23T09:33:47.963Z,14.70
2018-09-23T09:34:48.042Z,14.80
2018-09-23T09:35:47.941Z,15.90
2018-09-23T09:36:47.911Z,15.80
2018-09-23T09:37:47.906Z,16.50
2018-09-23T09:38:47.925Z,16.80
2018-09-23T09:39:47.858Z,15.70
2018-09-23T09:40:47.838Z,16.70
2018-09-23T09:41:47.824Z,15.50
2018-09-23T09:42:47.811Z,15.50
2018-09-23T09:43:47.785Z,15.90
2018-09-23T09:44:47.790Z,16.00
2018-09-23T09:45:47.752Z,14.90
2018-09-23T09:46:47.737Z,16.10
2018-09-23T09:47:47.714Z,15.30
2018-09-23T09:48:47.693Z,15.80
2018-09-23T09:49:47.686Z,14.60
2018-09-23T09:50:47.667Z,15.90
2018-09-23T09:51:47.643Z,14.50
2018-09-23T09:52:47.626Z,14.50
2018-09-23T09:53:47.607Z,16.00
2018-09-23T09:54:47.595Z,15.70
2018-09-23T09:55:47.643Z,16.10
2018-09-23T09:56:47.549Z,16.70
2018-09-23T09:57:47.535Z,15.40
2018-09-23T09:58:47.514Z,15.10
2018-09-23T09:59:47.503Z,16.10
2018-09-23T10:00:47.486Z,13.50
2018-09-23T10:01:47.465Z,15.60
2018-09-23T10:02:47.492Z,15.00
2018-09-23T10:03:47.437Z,15.50
2018-09-23T10:04:47.405Z,16.00
2018-09-23T10:05:47.389Z,16.70
2018-09-23T10:06:47.379Z,15.00
2018-09-23T10:07:47.352Z,16.60
2018-09-23T10:08:47.331Z,17.10
2018-09-23T10:09:47.315Z,15.40
2018-09-23T10:10:47.296Z,16.00
2018-09-23T10:11:47.280Z,16.30
2018-09-23T10:12:47.268Z,16.80
2018-09-23T10:13:47.244Z,16.00
2018-09-23T10:14:47.224Z,16.20
2018-09-23T10:15:47.236Z,15.50
2018-09-23T10:16:47.185Z,16.60
2018-09-23T10:17:47.179Z,17.60
2018-09-23T10:18:47.151Z,15.50
2018-09-23T10:19:47.162Z,15.10
2018-09-23T10:20:47.127Z,16.10
2018-09-23T10:21:47.092Z,16.20
2018-09-23T10:22:47.258Z,15.90
2018-09-23T10:23:47.139Z,16.60
2018-09-23T10:24:47.040Z,16.30
2018-09-23T10:25:47.025Z,16.80
2018-09-23T10:26:47.111Z,17.30
2018-09-23T10:27:47.000Z,15.30
2018-09-23T10:28:46.974Z,16.60
2018-09-23T10:29:46.953Z,16.10
2018-09-23T10:30:46.928Z,16.50
2018-09-23T10:31:46.960Z,17.80
2018-09-23T10:32:46.892Z,16.00
2018-09-23T10:33:46.879Z,16.40
2018-09-23T10:34:46.854Z,16.90
2018-09-23T10:35:46.866Z,15.50
2018-09-23T10:36:46.825Z,17.30
2018-09-23T10:37:46.806Z,15.30
2018-09-23T10:38:46.789Z,15.50
2018-09-23T10:39:46.767Z,15.80
2018-09-23T10:40:46.744Z,15.60
2018-09-23T10:41:46.725Z,15.30
2018-09-23T10:42:46.709Z,15.20
2018-09-23T10:43:46.699Z,14.70
2018-09-23T10:44:46.672Z,14.50
2018-09-23T10:45:46.770Z,14.80
2018-09-23T10:46:46.640Z,14.50
2018-09-23T10:47:46.617Z,15.00
2018-09-23T10:48:46.597Z,13.50
2018-09-23T10:49:46.581Z,12.70
2018-09-23T10:50:46.568Z,12.80
2018-09-23T10:51:46.540Z,12.50
2018-09-23T10:52:46.531Z,13.40
2018-09-23T10:53:46.511Z,13.10
2018-09-23T10:54:46.485Z,13.00
2018-09-23T10:55:46.506Z,12.00
2018-09-23T10:56:46.449Z,13.70
2018-09-23T10:57:46.445Z,12.00
2018-09-23T10:58:46.411Z,13.10
2018-09-23T10:59:46.401Z,12.60
2018-09-23T11:00:46.384Z,12.10
2018-09-23T11:01:46.354Z,11.80
2018-09-23T11:02:46.340Z,12.20
2018-09-23T11:03:46.395Z,12.10
2018-09-23T11:04:46.306Z,13.00
2018-09-23T11:05:46.290Z,12.20
2018-09-23T11:06:46.260Z,12.30
2018-09-23T11:07:46.259Z,12.60
2018-09-23T11:08:46.225Z,13.60
2018-09-23T11:09:46.247Z,14.00
2018-09-23T11:10:46.186Z,13.60
2018-09-23T11:11:46.168Z,14.40
2018-09-23T11:12:46.200Z,14.70
2018-09-23T11:13:46.133Z,14.20
2018-09-23T11:14:46.112Z,12.90
2018-09-23T11:15:46.100Z,13.60
2018-09-23T11:16:46.073Z,12.90
2018-09-23T11:17:46.070Z,13.20
2018-09-23T11:18:46.039Z,12.80
2018-09-23T11:19:46.017Z,14.20
2018-09-23T11:20:45.999Z,14.80
2018-09-23T11:21:45.993Z,14.50
2018-09-23T11:22:45.961Z,14.90
2018-09-23T11:23:45.942Z,14.60
2018-09-23T11:24:46.006Z,16.30
2018-09-23T11:25:45.908Z,16.10
2018-09-23T11:26:45.939Z,16.20
2018-09-23T11:27:45.873Z,15.50
2018-09-23T11:28:45.845Z,16.20
2018-09-23T11:29:45.832Z,16.70
2018-09-23T11:30:45.847Z,15.90
2018-09-23T11:31:45.798Z,16.00
2018-09-23T11:32:45.773Z,14.90
2018-09-23T11:33:45.754Z,16.70
2018-09-23T11:34:45.858Z,15.70
2018-09-23T11:35:45.723Z,15.10
2018-09-23T11:36:45.695Z,14.00
2018-09-23T11:37:45.677Z,15.80
2018-09-23T11:38:45.668Z,15.00
2018-09-23T11:39:45.659Z,16.40
2018-09-23T11:40:45.629Z,14.30
2018-09-23T11:41:45.618Z,13.00
2018-09-23T11:42:45.619Z,13.80
2018-09-23T11:43:45.570Z,12.70
2018-09-23T11:44:45.553Z,13.60
2018-09-23T11:45:45.529Z,12.90
2018-09-23T11:46:45.513Z,14.00
2018-09-23T11:47:45.490Z,15.20
2018-09-23T11:48:45.473Z,15.00
2018-09-23T11:49:45.456Z,15.80
2018-09-23T11:50:45.450Z,14.80
2018-09-23T11:51:45.415Z,14.40
2018-09-23T11:52:45.396Z,14.90
2018-09-23T11:53:45.378Z,14.90
2018-09-23T11:54:45.356Z,15.70
2018-09-23T11:55:45.342Z,17.20
2018-09-23T11:56:45.321Z,17.40
2018-09-23T11:57:45.327Z,17.30
2018-09-23T11:58:45.298Z,16.10
2018-09-23T11:59:45.269Z,15.00
2018-09-23T12:00:45.251Z,18.20
2018-09-23T12:01:45.239Z,17.20
2018-09-23T12:02:45.223Z,17.70
2018-09-23T12:03:45.192Z,19.80
2018-09-23T12:04:45.173Z,19.00
2018-09-23T12:05:45.148Z,18.80
2018-09-23T12:06:45.137Z,19.30
2018-09-23T12:07:45.115Z,19.90
2018-09-23T12:08:45.092Z,20.40
2018-09-23T12:09:45.073Z,21.50
2018-09-23T12:10:45.114Z,20.20
2018-09-23T12:11:45.059Z,21.30
2018-09-23T12:12:45.014Z,20.30
2018-09-23T12:13:45.008Z,18.70
2018-09-23T12:14:45.006Z,19.80
2018-09-23T12:15:45.082Z,18.90
2018-09-23T12:16:44.943Z,20.60
2018-09-23T12:17:44.936Z,21.40
2018-09-23T12:18:44.904Z,21.80
2018-09-23T12:19:44.881Z,21.90
2018-09-23T12:20:44.981Z,22.20
2018-09-23T12:21:44.851Z,23.40
2018-09-23T12:22:44.827Z,23.40
2018-09-23T12:23:44.814Z,24.50
2018-09-23T12:24:44.799Z,24.40
2018-09-23T12:25:44.886Z,23.60
2018-09-23T12:26:44.755Z,24.10
2018-09-23T12:27:44.745Z,24.40
2018-09-23T12:28:44.718Z,25.80
2018-09-23T12:29:44.804Z,26.00
2018-09-23T12:30:44.673Z,22.10
2018-09-23T12:31:44.659Z,22.90
2018-09-23T12:32:44.649Z,22.90
2018-09-23T12:33:44.621Z,22.60
2018-09-23T12:34:44.602Z,27.20
2018-09-23T12:35:44.581Z,25.70
2018-09-23T12:36:44.561Z,26.60
2018-09-23T12:37:44.546Z,26.60
2018-09-23T12:38:44.527Z,27.40
2018-09-23T12:39:44.527Z,26.70
2018-09-23T12:40:44.486Z,28.70
2018-09-23T12:41:44.467Z,26.60
2018-09-23T12:42:44.450Z,26.60
2018-09-23T12:43:44.430Z,27.30
2018-09-23T12:44:44.414Z,27.50
2018-09-23T12:45:44.400Z,28.80
2018-09-23T12:46:44.362Z,26.40
2018-09-23T12:47:44.345Z,28.10
2018-09-23T12:48:44.335Z,27.20
2018-09-23T12:49:44.314Z,26.10
2018-09-23T12:50:44.287Z,27.30
2018-09-23T12:51:44.266Z,28.80
2018-09-23T12:52:44.255Z,26.90